Terminal Aerodrome Forecast
Issued by NWS

Home | Current Version | Previous Version | Text Only | Print | Product List | Glossary On
Versions: 1 2 3 4 5 6 7 8 9 10 11 12 13 14 15 16 17 18 19 20 21 22 23 24
091
FTUS42 KILM 061733
TAFCRE
TAF
KCRE 061733Z 0618/0718 04011KT P6SM VCSH SCT060 BKN090
      TEMPO 0618/0621 6SM -RA BKN050
     FM062100 04010KT P6SM VCSH FEW030 BKN050
     FM070300 01012G20KT 6SM -RA SCT020 OVC050
     FM070700 02015G20KT 5SM -RA BR BKN020 OVC050
     FM071200 36019G27KT 4SM -RA BR SCT007 OVC015=

USA.gov is the U.S. government's official web portal to all federal, state and local government web resources and services.